Aeroporto :
LOGIN :

Iscrizione | Disclaimer

   EN    FR    IT 

 










Sommario :    VFR   VFR Marginale   IFR   IFR Intensivo   IFR Molto Intensivo
Visibilità : 
Base nubi : 
>= 8 km
>= 3000ft
5 / 8 km
1000 / 3000 ft
1500m / 5 km
500 / 1000 ft
800 / 1500m
200 / 500 ft
< 800m
< 200 ft
Simboli :   Temporali  Nebbia  Neve Forte  Precipitazioni Forti  Vento > 20 kt
SIGMETs :   Varie  Temporali  Ghiacco  Turbolenza  Onda orograficha  Ceneri Vulcaniche






- Altitudine del aeroporto : 466 ft


LHPA - Pápa

ULTIMO METAR :
  • 251545Z 18012KT CAVOK 14/06 Q1002 NOSIG RMK BLU

METARs OBSOLETI :
  • 251515Z 19012KT CAVOK 15/05 Q1002 NOSIG RMK BLU
  • 251445Z 19012KT 150V210 CAVOK 15/05 Q1002 NOSIG RMK BLU
  • 251415Z 17012KT CAVOK 16/05 Q1003 NOSIG RMK BLU
  • 251345Z 18012KT 150V230 CAVOK 16/05 Q1003 NOSIG RMK BLU
  • 251315Z 20012KT 150V230 CAVOK 16/04 Q1004 NOSIG RMK BLU

TAF TAF LHPA
Valido dal 25 a 12 ore il 26 a 12 ore UTC


251115Z 2512/2612 20015KT CAVOK
BECMG 2517/2520 9999 SCT040 BKN080
TEMPO 2520/2608 8000 RA BKN030 BKN050 BKN083
BECMG 2605/2608 33010KT SCT030 BKN050
TEMPO 2608/2612 33017G27KT
PROB30
TEMPO 2608/2612 SHRA SCT030TCU BKN030



MetMap, La meteo Aeronautica in un colpo d'occhio ! - Copyright ORBIFLY Dicembre 2007 - Disclaimer

ORBIFLY MET'MAP TEAM :

Programmazione e sviluppo : Alexandra Zaïnal
Concezione : Baudouin d'Aumeries
Aiuto per la programmazione : Marc-Olivier Méhu
Supporto tecnico e logistico : Manuel Goepfert
Aiuto per la traduzione : Arnaldo La Scala

Contatto : metmap@orbifly.com




FONTI E CREDITI :

   NOAA